sensor_id;sensor_type;location;lat;lon;timestamp;pressure;altitude;pressure_sealevel;temperature;humidity
35443;BME280;21561;55.654;37.592;2024-02-15T00:02:26;100652.59;;;-11.96;93.62
35443;BME280;21561;55.654;37.592;2024-02-15T00:04:53;100649.75;;;-11.99;93.64
35443;BME280;21561;55.654;37.592;2024-02-15T00:07:20;100649.19;;;-12.05;93.72
35443;BME280;21561;55.654;37.592;2024-02-15T00:09:49;100644.75;;;-12.08;93.67
35443;BME280;21561;55.654;37.592;2024-02-15T00:12:16;100648.00;;;-12.09;93.62
35443;BME280;21561;55.654;37.592;2024-02-15T00:14:43;100640.03;;;-12.14;93.47
35443;BME280;21561;55.654;37.592;2024-02-15T00:17:10;100647.22;;;-12.17;93.79
35443;BME280;21561;55.654;37.592;2024-02-15T00:19:38;100637.97;;;-12.18;94.00
35443;BME280;21561;55.654;37.592;2024-02-15T00:22:09;100641.19;;;-12.19;94.22
35443;BME280;21561;55.654;37.592;2024-02-15T00:24:37;100647.81;;;-12.19;94.20
35443;BME280;21561;55.654;37.592;2024-02-15T00:27:09;100644.44;;;-12.20;93.98
35443;BME280;21561;55.654;37.592;2024-02-15T00:29:38;100637.66;;;-12.21;93.89
35443;BME280;21561;55.654;37.592;2024-02-15T00:32:07;100638.41;;;-12.22;94.19
35443;BME280;21561;55.654;37.592;2024-02-15T00:34:34;100637.66;;;-12.21;94.52
35443;BME280;21561;55.654;37.592;2024-02-15T00:37:01;100628.53;;;-12.20;94.77
35443;BME280;21561;55.654;37.592;2024-02-15T00:39:28;100632.66;;;-12.21;94.71
35443;BME280;21561;55.654;37.592;2024-02-15T00:41:55;100619.41;;;-12.20;95.10
35443;BME280;21561;55.654;37.592;2024-02-15T00:44:22;100626.19;;;-12.19;95.11
35443;BME280;21561;55.654;37.592;2024-02-15T00:46:49;100627.97;;;-12.18;95.04
35443;BME280;21561;55.654;37.592;2024-02-15T00:49:17;100620.91;;;-12.22;95.18
35443;BME280;21561;55.654;37.592;2024-02-15T00:51:47;100626.03;;;-12.20;95.37
35443;BME280;21561;55.654;37.592;2024-02-15T00:54:15;100619.13;;;-12.23;95.57
35443;BME280;21561;55.654;37.592;2024-02-15T00:56:43;100618.09;;;-12.25;95.67
35443;BME280;21561;55.654;37.592;2024-02-15T00:59:10;100613.06;;;-12.25;95.98
35443;BME280;21561;55.654;37.592;2024-02-15T01:01:37;100616.44;;;-12.24;95.96
35443;BME280;21561;55.654;37.592;2024-02-15T01:04:04;100614.81;;;-12.24;95.91
35443;BME280;21561;55.654;37.592;2024-02-15T01:06:32;100609.09;;;-12.23;95.87
35443;BME280;21561;55.654;37.592;2024-02-15T01:09:00;100623.09;;;-12.25;96.29
35443;BME280;21561;55.654;37.592;2024-02-15T01:11:30;100607.91;;;-12.26;96.24
35443;BME280;21561;55.654;37.592;2024-02-15T01:14:01;100615.28;;;-12.28;95.93
35443;BME280;21561;55.654;37.592;2024-02-15T01:16:28;100609.22;;;-12.30;96.02
35443;BME280;21561;55.654;37.592;2024-02-15T01:18:55;100614.25;;;-12.30;95.84
35443;BME280;21561;55.654;37.592;2024-02-15T01:21:22;100608.94;;;-12.33;96.27
35443;BME280;21561;55.654;37.592;2024-02-15T01:23:49;100612.91;;;-12.35;96.35
35443;BME280;21561;55.654;37.592;2024-02-15T01:26:17;100607.91;;;-12.35;96.72
35443;BME280;21561;55.654;37.592;2024-02-15T01:28:44;100614.97;;;-12.31;96.78
35443;BME280;21561;55.654;37.592;2024-02-15T01:31:11;100613.50;;;-12.29;96.47
35443;BME280;21561;55.654;37.592;2024-02-15T01:33:39;100614.09;;;-12.32;96.48
35443;BME280;21561;55.654;37.592;2024-02-15T01:36:06;100607.75;;;-12.28;96.65
35443;BME280;21561;55.654;37.592;2024-02-15T01:38:33;100615.28;;;-12.28;96.35
35443;BME280;21561;55.654;37.592;2024-02-15T01:41:00;100605.25;;;-12.28;96.38
35443;BME280;21561;55.654;37.592;2024-02-15T01:43:27;100620.59;;;-12.25;96.49
35443;BME280;21561;55.654;37.592;2024-02-15T01:45:56;100617.31;;;-12.24;96.29
35443;BME280;21561;55.654;37.592;2024-02-15T01:48:26;100610.41;;;-12.26;95.99
35443;BME280;21561;55.654;37.592;2024-02-15T01:50:54;100617.94;;;-12.26;96.04
35443;BME280;21561;55.654;37.592;2024-02-15T01:53:21;100613.50;;;-12.29;95.97
35443;BME280;21561;55.654;37.592;2024-02-15T01:55:48;100609.53;;;-12.27;96.13
35443;BME280;21561;55.654;37.592;2024-02-15T01:58:15;100621.75;;;-12.30;96.01
35443;BME280;21561;55.654;37.592;2024-02-15T02:00:42;100618.22;;;-12.32;96.69
35443;BME280;21561;55.654;37.592;2024-02-15T02:03:10;100612.03;;;-12.27;96.37
35443;BME280;21561;55.654;37.592;2024-02-15T02:05:40;100613.22;;;-12.23;96.70
35443;BME280;21561;55.654;37.592;2024-02-15T02:08:08;100612.47;;;-12.22;96.64
35443;BME280;21561;55.654;37.592;2024-02-15T02:10:39;100616.91;;;-12.20;95.81
35443;BME280;21561;55.654;37.592;2024-02-15T02:13:07;100617.31;;;-12.24;95.78
35443;BME280;21561;55.654;37.592;2024-02-15T02:15:35;100612.03;;;-12.27;95.82
35443;BME280;21561;55.654;37.592;2024-02-15T02:18:04;100611.13;;;-12.27;96.09
35443;BME280;21561;55.654;37.592;2024-02-15T02:20:37;100611.75;;;-12.30;95.91
35443;BME280;21561;55.654;37.592;2024-02-15T02:23:14;100607.91;;;-12.35;95.87
35443;BME280;21561;55.654;37.592;2024-02-15T02:25:42;100617.31;;;-12.41;96.02
35443;BME280;21561;55.654;37.592;2024-02-15T02:28:11;100628.47;;;-12.46;96.70
35443;BME280;21561;55.654;37.592;2024-02-15T02:30:39;100623.88;;;-12.51;96.53
35443;BME280;21561;55.654;37.592;2024-02-15T02:33:12;100625.66;;;-12.50;96.88
35443;BME280;21561;55.654;37.592;2024-02-15T02:35:47;100617.56;;;-12.56;97.03
35443;BME280;21561;55.654;37.592;2024-02-15T02:38:15;100619.31;;;-12.55;97.26
35443;BME280;21561;55.654;37.592;2024-02-15T02:40:42;100631.09;;;-12.54;97.79
35443;BME280;21561;55.654;37.592;2024-02-15T02:43:09;100621.69;;;-12.48;97.92
35443;BME280;21561;55.654;37.592;2024-02-15T02:45:37;100621.69;;;-12.48;97.28
35443;BME280;21561;55.654;37.592;2024-02-15T02:48:04;100629.03;;;-12.49;97.52
35443;BME280;21561;55.654;37.592;2024-02-15T02:50:32;100631.38;;;-12.51;97.10
35443;BME280;21561;55.654;37.592;2024-02-15T02:53:00;100624.63;;;-12.52;97.79
35443;BME280;21561;55.654;37.592;2024-02-15T02:55:27;100622.84;;;-12.53;97.98
35443;BME280;21561;55.654;37.592;2024-02-15T02:57:54;100629.63;;;-12.52;97.35
35443;BME280;21561;55.654;37.592;2024-02-15T03:00:22;100634.31;;;-12.55;97.28
35443;BME280;21561;55.654;37.592;2024-02-15T03:02:49;100630.78;;;-12.57;97.62
35443;BME280;21561;55.654;37.592;2024-02-15T03:05:17;100635.78;;;-12.57;97.59
35443;BME280;21561;55.654;37.592;2024-02-15T03:07:48;100634.00;;;-12.58;97.82
35443;BME280;21561;55.654;37.592;2024-02-15T03:10:15;100635.47;;;-12.60;97.42
35443;BME280;21561;55.654;37.592;2024-02-15T03:12:44;100635.47;;;-12.60;97.13
35443;BME280;21561;55.654;37.592;2024-02-15T03:15:15;100640.78;;;-12.57;97.30
35443;BME280;21561;55.654;37.592;2024-02-15T03:17:46;100638.41;;;-12.64;97.21
35443;BME280;21561;55.654;37.592;2024-02-15T03:20:14;100637.38;;;-12.66;96.97
35443;BME280;21561;55.654;37.592;2024-02-15T03:22:56;100639.88;;;-12.66;97.13
35443;BME280;21561;55.654;37.592;2024-02-15T03:25:27;100642.78;;;-12.70;96.87
35443;BME280;21561;55.654;37.592;2024-02-15T03:27:57;100644.22;;;-12.72;97.39
35443;BME280;21561;55.654;37.592;2024-02-15T03:30:26;100644.38;;;-12.71;97.75
35443;BME280;21561;55.654;37.592;2024-02-15T03:32:53;100637.91;;;-12.69;97.59
35443;BME280;21561;55.654;37.592;2024-02-15T03:35:24;100645.91;;;-12.64;97.33
35443;BME280;21561;55.654;37.592;2024-02-15T03:37:52;100643.09;;;-12.67;97.40
35443;BME280;21561;55.654;37.592;2024-02-15T03:40:20;100649.56;;;-12.69;97.53
35443;BME280;21561;55.654;37.592;2024-02-15T03:42:48;100642.78;;;-12.70;97.65
35443;BME280;21561;55.654;37.592;2024-02-15T03:45:18;100644.22;;;-12.72;97.85
35443;BME280;21561;55.654;37.592;2024-02-15T03:47:45;100657.16;;;-12.76;97.92
35443;BME280;21561;55.654;37.592;2024-02-15T03:50:13;100647.91;;;-12.77;98.08
35443;BME280;21561;55.654;37.592;2024-02-15T03:52:42;100652.47;;;-12.73;98.25
35443;BME280;21561;55.654;37.592;2024-02-15T03:55:10;100655.13;;;-12.72;97.67
35443;BME280;21561;55.654;37.592;2024-02-15T03:57:40;100662.47;;;-12.73;98.01
35443;BME280;21561;55.654;37.592;2024-02-15T04:00:08;100658.03;;;-12.76;98.51
35443;BME280;21561;55.654;37.592;2024-02-15T04:02:37;100663.94;;;-12.75;98.27
35443;BME280;21561;55.654;37.592;2024-02-15T04:05:09;100667.91;;;-12.77;98.46
35443;BME280;21561;55.654;37.592;2024-02-15T04:07:37;100658.94;;;-12.75;98.51
35443;BME280;21561;55.654;37.592;2024-02-15T04:10:05;100673.63;;;-12.78;98.44
35443;BME280;21561;55.654;37.592;2024-02-15T04:12:47;100676.13;;;-12.78;98.54
35443;BME280;21561;55.654;37.592;2024-02-15T04:15:14;100672.59;;;-12.80;97.97
35443;BME280;21561;55.654;37.592;2024-02-15T04:17:44;100676.56;;;-12.82;97.85
35443;BME280;21561;55.654;37.592;2024-02-15T04:20:12;100671.22;;;-12.85;98.07
35443;BME280;21561;55.654;37.592;2024-02-15T04:22:41;100670.91;;;-12.89;98.20
35443;BME280;21561;55.654;37.592;2024-02-15T04:25:10;100674.44;;;-12.87;98.38
35443;BME280;21561;55.654;37.592;2024-02-15T04:27:46;100671.38;;;-12.84;98.61
35443;BME280;21561;55.654;37.592;2024-02-15T04:30:14;100674.75;;;-12.83;98.59
35443;BME280;21561;55.654;37.592;2024-02-15T04:32:43;100670.34;;;-12.86;98.43
35443;BME280;21561;55.654;37.592;2024-02-15T04:35:10;100673.56;;;-12.87;98.85
35443;BME280;21561;55.654;37.592;2024-02-15T04:37:41;100673.88;;;-12.84;99.24
35443;BME280;21561;55.654;37.592;2024-02-15T04:40:08;100669.78;;;-12.83;98.44
35443;BME280;21561;55.654;37.592;2024-02-15T04:42:39;100678.72;;;-12.85;98.69
35443;BME280;21561;55.654;37.592;2024-02-15T04:45:08;100676.56;;;-12.82;98.97
35443;BME280;21561;55.654;37.592;2024-02-15T04:47:54;100666.84;;;-12.79;98.64
35443;BME280;21561;55.654;37.592;2024-02-15T04:50:23;100675.09;;;-12.80;98.74
35443;BME280;21561;55.654;37.592;2024-02-15T04:52:52;100674.75;;;-12.83;98.50
35443;BME280;21561;55.654;37.592;2024-02-15T04:55:19;100671.22;;;-12.85;98.47
35443;BME280;21561;55.654;37.592;2024-02-15T04:57:46;100671.22;;;-12.85;98.62
35443;BME280;21561;55.654;37.592;2024-02-15T05:00:16;100669.78;;;-12.83;98.77
35443;BME280;21561;55.654;37.592;2024-02-15T05:02:46;100670.91;;;-12.89;98.43
35443;BME280;21561;55.654;37.592;2024-02-15T05:05:13;100671.00;;;-12.96;98.31
35443;BME280;21561;55.654;37.592;2024-02-15T05:07:41;100679.97;;;-12.98;99.00
35443;BME280;21561;55.654;37.592;2024-02-15T05:10:10;100680.56;;;-13.00;99.25
35443;BME280;21561;55.654;37.592;2024-02-15T05:12:39;100684.97;;;-12.98;99.10
35443;BME280;21561;55.654;37.592;2024-02-15T05:15:15;100691.75;;;-12.97;99.38
35443;BME280;21561;55.654;37.592;2024-02-15T05:17:44;100690.63;;;-12.92;99.57
35443;BME280;21561;55.654;37.592;2024-02-15T05:20:12;100699.16;;;-12.90;99.56
35443;BME280;21561;55.654;37.592;2024-02-15T05:22:40;100701.66;;;-12.90;99.09
35443;BME280;21561;55.654;37.592;2024-02-15T05:25:16;100695.03;;;-12.89;99.54
35443;BME280;21561;55.654;37.592;2024-02-15T05:27:51;100710.19;;;-12.88;99.28
35443;BME280;21561;55.654;37.592;2024-02-15T05:30:20;100705.03;;;-12.89;99.33
35443;BME280;21561;55.654;37.592;2024-02-15T05:32:47;100708.81;;;-12.93;99.02
35443;BME280;21561;55.654;37.592;2024-02-15T05:35:16;100716.00;;;-12.96;98.86
35443;BME280;21561;55.654;37.592;2024-02-15T05:37:44;100713.50;;;-12.96;99.12
35443;BME280;21561;55.654;37.592;2024-02-15T05:40:12;100723.81;;;-12.93;99.61
35443;BME280;21561;55.654;37.592;2024-02-15T05:42:42;100734.53;;;-12.94;99.39
35443;BME280;21561;55.654;37.592;2024-02-15T05:47:55;100739.69;;;-12.92;99.52
35443;BME280;21561;55.654;37.592;2024-02-15T05:50:22;100740.88;;;-12.89;99.50
35443;BME280;21561;55.654;37.592;2024-02-15T05:52:51;100738.00;;;-12.84;99.47
35443;BME280;21561;55.654;37.592;2024-02-15T05:55:22;100742.41;;;-12.82;99.76
35443;BME280;21561;55.654;37.592;2024-02-15T05:57:49;100746.53;;;-12.82;99.67
35443;BME280;21561;55.654;37.592;2024-02-15T06:00:16;100751.81;;;-12.79;99.52
35443;BME280;21561;55.654;37.592;2024-02-15T06:02:49;100755.41;;;-12.77;99.50
35443;BME280;21561;55.654;37.592;2024-02-15T06:05:17;100755.06;;;-12.80;99.83
35443;BME280;21561;55.654;37.592;2024-02-15T06:07:44;100764.91;;;-12.82;99.58
35443;BME280;21561;55.654;37.592;2024-02-15T06:10:13;100767.56;;;-12.80;99.83
35443;BME280;21561;55.654;37.592;2024-02-15T06:12:41;100765.41;;;-12.77;100.00
35443;BME280;21561;55.654;37.592;2024-02-15T06:15:08;100764.22;;;-12.72;99.94
35443;BME280;21561;55.654;37.592;2024-02-15T06:17:43;100760.69;;;-12.74;99.77
35443;BME280;21561;55.654;37.592;2024-02-15T06:20:14;100752.78;;;-12.70;99.48
35443;BME280;21561;55.654;37.592;2024-02-15T06:22:41;100764.47;;;-12.78;99.26
35443;BME280;21561;55.654;37.592;2024-02-15T06:25:09;100769.75;;;-12.83;99.27
35443;BME280;21561;55.654;37.592;2024-02-15T06:27:37;100766.53;;;-12.82;99.33
35443;BME280;21561;55.654;37.592;2024-02-15T06:30:11;100763.94;;;-12.75;99.48
35443;BME280;21561;55.654;37.592;2024-02-15T06:32:57;100765.69;;;-12.74;99.52
35443;BME280;21561;55.654;37.592;2024-02-15T06:35:43;100772.47;;;-12.73;99.11
35443;BME280;21561;55.654;37.592;2024-02-15T06:38:29;100772.47;;;-12.73;98.86
35443;BME280;21561;55.654;37.592;2024-02-15T06:41:15;100776.81;;;-12.79;98.81
35443;BME280;21561;55.654;37.592;2024-02-15T06:43:42;100778.28;;;-12.81;99.22
35443;BME280;21561;55.654;37.592;2024-02-15T06:46:09;100774.19;;;-12.81;99.31
35443;BME280;21561;55.654;37.592;2024-02-15T06:48:37;100771.16;;;-12.70;99.75
35443;BME280;21561;55.654;37.592;2024-02-15T06:51:04;100771.63;;;-12.65;99.40
35443;BME280;21561;55.654;37.592;2024-02-15T06:53:32;100769.28;;;-12.63;99.38
35443;BME280;21561;55.654;37.592;2024-02-15T06:55:59;100772.28;;;-12.59;99.76
35443;BME280;21561;55.654;37.592;2024-02-15T06:58:26;100778.72;;;-12.61;99.23
35443;BME280;21561;55.654;37.592;2024-02-15T07:00:53;100781.63;;;-12.65;99.01
35443;BME280;21561;55.654;37.592;2024-02-15T07:03:21;100787.78;;;-12.70;98.66
35443;BME280;21561;55.654;37.592;2024-02-15T07:05:50;100798.09;;;-12.67;99.23
35443;BME280;21561;55.654;37.592;2024-02-15T07:08:17;100781.94;;;-12.62;99.50
35443;BME280;21561;55.654;37.592;2024-02-15T07:10:44;100781.84;;;-12.55;99.66
35443;BME280;21561;55.654;37.592;2024-02-15T07:13:11;100784.66;;;-12.52;99.40
35443;BME280;21561;55.654;37.592;2024-02-15T07:15:37;100781.13;;;-12.54;99.07
35443;BME280;21561;55.654;37.592;2024-02-15T07:18:05;100789.78;;;-12.59;98.31
35443;BME280;21561;55.654;37.592;2024-02-15T07:20:33;100786.00;;;-12.71;98.55
35443;BME280;21561;55.654;37.592;2024-02-15T07:23:00;100788.03;;;-12.76;98.67
35443;BME280;21561;55.654;37.592;2024-02-15T07:25:27;100782.72;;;-12.79;97.92
35443;BME280;21561;55.654;37.592;2024-02-15T07:27:54;100781.53;;;-12.82;98.84
35443;BME280;21561;55.654;37.592;2024-02-15T07:30:21;100780.06;;;-12.80;99.05
35443;BME280;21561;55.654;37.592;2024-02-15T07:32:51;100786.72;;;-12.72;99.15
35443;BME280;21561;55.654;37.592;2024-02-15T07:35:19;100793.09;;;-12.67;98.66
35443;BME280;21561;55.654;37.592;2024-02-15T07:37:53;100781.94;;;-12.62;98.72
35443;BME280;21561;55.654;37.592;2024-02-15T07:40:22;100786.22;;;-12.61;98.52
35443;BME280;21561;55.654;37.592;2024-02-15T07:42:49;100782.28;;;-12.59;98.35
35443;BME280;21561;55.654;37.592;2024-02-15T07:45:17;100785.09;;;-12.56;98.20
35443;BME280;21561;55.654;37.592;2024-02-15T07:47:44;100790.22;;;-12.54;98.34
35443;BME280;21561;55.654;37.592;2024-02-15T07:50:17;100793.53;;;-12.46;98.26
35443;BME280;21561;55.654;37.592;2024-02-15T07:52:49;100795.28;;;-12.45;98.26
35443;BME280;21561;55.654;37.592;2024-02-15T07:55:17;100791.22;;;-12.36;98.64
35443;BME280;21561;55.654;37.592;2024-02-15T07:57:44;100797.47;;;-12.24;98.14
35443;BME280;21561;55.654;37.592;2024-02-15T08:00:15;100794.84;;;-12.17;97.85
35443;BME280;21561;55.654;37.592;2024-02-15T08:02:43;100804.13;;;-12.16;97.19
35443;BME280;21561;55.654;37.592;2024-02-15T08:05:11;100810.28;;;-12.21;97.07
35443;BME280;21561;55.654;37.592;2024-02-15T08:07:43;100811.59;;;-12.24;96.61
35443;BME280;21561;55.654;37.592;2024-02-15T08:10:14;100811.88;;;-12.30;96.44
35443;BME280;21561;55.654;37.592;2024-02-15T08:12:45;100807.47;;;-12.24;96.44
35443;BME280;21561;55.654;37.592;2024-02-15T08:15:12;100807.75;;;-12.30;96.31
35443;BME280;21561;55.654;37.592;2024-02-15T08:17:40;100795.06;;;-12.31;95.68
35443;BME280;21561;55.654;37.592;2024-02-15T08:20:10;100811.00;;;-12.31;95.35
35443;BME280;21561;55.654;37.592;2024-02-15T08:22:38;100808.63;;;-12.29;95.62
35443;BME280;21561;55.654;37.592;2024-02-15T08:25:11;100812.75;;;-12.30;95.04
35443;BME280;21561;55.654;37.592;2024-02-15T08:27:42;100806.84;;;-12.30;94.68
35443;BME280;21561;55.654;37.592;2024-02-15T08:30:13;100808.31;;;-12.32;94.49
35443;BME280;21561;55.654;37.592;2024-02-15T08:32:40;100813.94;;;-12.26;95.03
35443;BME280;21561;55.654;37.592;2024-02-15T08:35:13;100820.03;;;-12.15;94.89
35443;BME280;21561;55.654;37.592;2024-02-15T08:37:40;100815.38;;;-12.03;94.86
35443;BME280;21561;55.654;37.592;2024-02-15T08:40:09;100818.34;;;-11.99;94.32
35443;BME280;21561;55.654;37.592;2024-02-15T08:42:42;100816.75;;;-11.98;94.15
35443;BME280;21561;55.654;37.592;2024-02-15T08:45:10;100815.00;;;-11.91;94.10
35443;BME280;21561;55.654;37.592;2024-02-15T08:47:39;100815.44;;;-11.86;93.96
35443;BME280;21561;55.654;37.592;2024-02-15T08:50:07;100819.38;;;-11.88;93.62
35443;BME280;21561;55.654;37.592;2024-02-15T08:52:38;100826.16;;;-11.87;93.36
35443;BME280;21561;55.654;37.592;2024-02-15T08:57:33;100820.00;;;-11.82;93.67
35443;BME280;21561;55.654;37.592;2024-02-15T09:00:03;100822.66;;;-11.80;92.72
35443;BME280;21561;55.654;37.592;2024-02-15T09:02:44;100815.72;;;-11.92;93.10
35443;BME280;21561;55.654;37.592;2024-02-15T09:05:12;100812.03;;;-11.95;92.95
35443;BME280;21561;55.654;37.592;2024-02-15T09:07:42;100823.97;;;-11.93;92.76
35443;BME280;21561;55.654;37.592;2024-02-15T09:10:10;100824.69;;;-11.85;93.39
35443;BME280;21561;55.654;37.592;2024-02-15T09:12:39;100817.81;;;-11.79;93.37
35443;BME280;21561;55.654;37.592;2024-02-15T09:15:07;100811.34;;;-11.77;92.44
35443;BME280;21561;55.654;37.592;2024-02-15T09:17:35;100818.53;;;-11.80;92.33
35443;BME280;21561;55.654;37.592;2024-02-15T09:20:09;100822.81;;;-11.79;92.47
35443;BME280;21561;55.654;37.592;2024-02-15T09:22:51;100822.06;;;-11.78;92.22
35443;BME280;21561;55.654;37.592;2024-02-15T09:25:18;100824.16;;;-11.74;93.15
35443;BME280;21561;55.654;37.592;2024-02-15T09:27:45;100828.47;;;-11.64;93.11
35443;BME280;21561;55.654;37.592;2024-02-15T09:30:13;100828.34;;;-11.57;93.20
35443;BME280;21561;55.654;37.592;2024-02-15T09:32:40;100822.75;;;-11.54;92.30
35443;BME280;21561;55.654;37.592;2024-02-15T09:35:09;100822.47;;;-11.57;91.91
35443;BME280;21561;55.654;37.592;2024-02-15T09:37:37;100830.09;;;-11.64;91.79
35443;BME280;21561;55.654;37.592;2024-02-15T09:40:23;100825.38;;;-11.61;92.07
35443;BME280;21561;55.654;37.592;2024-02-15T09:42:56;100827.41;;;-11.75;91.77
35443;BME280;21561;55.654;37.592;2024-02-15T09:45:23;100826.94;;;-11.79;92.19
35443;BME280;21561;55.654;37.592;2024-02-15T09:47:52;100827.69;;;-11.80;92.19
35443;BME280;21561;55.654;37.592;2024-02-15T09:50:22;100823.28;;;-11.74;92.46
35443;BME280;21561;55.654;37.592;2024-02-15T09:52:52;100826.53;;;-11.66;92.19
35443;BME280;21561;55.654;37.592;2024-02-15T09:55:22;100823.63;;;-11.62;92.40
35443;BME280;21561;55.654;37.592;2024-02-15T09:57:50;100821.84;;;-11.63;91.94
35443;BME280;21561;55.654;37.592;2024-02-15T10:00:17;100822.72;;;-11.72;91.40
35443;BME280;21561;55.654;37.592;2024-02-15T10:02:47;100825.63;;;-11.76;91.90
35443;BME280;21561;55.654;37.592;2024-02-15T10:05:17;100818.25;;;-11.74;92.49
35443;BME280;21561;55.654;37.592;2024-02-15T10:07:45;100828.44;;;-11.73;92.36
35443;BME280;21561;55.654;37.592;2024-02-15T10:10:19;100816.94;;;-11.71;92.55
35443;BME280;21561;55.654;37.592;2024-02-15T10:12:51;100818.44;;;-11.64;92.38
35443;BME280;21561;55.654;37.592;2024-02-15T10:15:39;100824.03;;;-11.66;91.81
35443;BME280;21561;55.654;37.592;2024-02-15T10:18:10;100826.78;;;-11.81;92.02
35443;BME280;21561;55.654;37.592;2024-02-15T10:20:40;100823.22;;;-11.83;92.51
35443;BME280;21561;55.654;37.592;2024-02-15T10:25:39;100827.63;;;-11.89;92.37
35443;BME280;21561;55.654;37.592;2024-02-15T10:28:14;100831.34;;;-11.85;92.57
35443;BME280;21561;55.654;37.592;2024-02-15T10:30:46;100829.25;;;-11.89;92.45
35443;BME280;21561;55.654;37.592;2024-02-15T10:33:19;100826.50;;;-11.84;93.10
35443;BME280;21561;55.654;37.592;2024-02-15T10:36:13;100826.06;;;-11.80;93.32
35443;BME280;21561;55.654;37.592;2024-02-15T10:38:40;100830.34;;;-11.70;92.63
35443;BME280;21561;55.654;37.592;2024-02-15T10:41:08;100823.00;;;-11.68;92.12
35443;BME280;21561;55.654;37.592;2024-02-15T10:43:37;100823.00;;;-11.68;92.11
35443;BME280;21561;55.654;37.592;2024-02-15T10:46:05;100832.41;;;-11.75;92.55
35443;BME280;21561;55.654;37.592;2024-02-15T10:48:36;100827.47;;;-11.57;93.04
35443;BME280;21561;55.654;37.592;2024-02-15T10:51:09;100829.84;;;-11.50;92.74
35443;BME280;21561;55.654;37.592;2024-02-15T10:53:39;100839.28;;;-11.47;92.87
35443;BME280;21561;55.654;37.592;2024-02-15T10:56:22;100830.47;;;-11.35;92.69
35443;BME280;21561;55.654;37.592;2024-02-15T10:59:16;100822.97;;;-11.26;92.15
35443;BME280;21561;55.654;37.592;2024-02-15T11:01:45;100838.13;;;-11.34;91.69
35443;BME280;21561;55.654;37.592;2024-02-15T11:04:15;100830.75;;;-11.23;92.21
35443;BME280;21561;55.654;37.592;2024-02-15T11:06:49;100831.06;;;-11.20;92.03
35443;BME280;21561;55.654;37.592;2024-02-15T11:09:18;100826.69;;;-11.14;91.78
35443;BME280;21561;55.654;37.592;2024-02-15T11:11:46;100827.25;;;-11.08;91.67
35443;BME280;21561;55.654;37.592;2024-02-15T11:14:27;100829.59;;;-11.09;90.80
35443;BME280;21561;55.654;37.592;2024-02-15T11:17:02;100830.47;;;-11.26;91.17
35443;BME280;21561;55.654;37.592;2024-02-15T11:22:15;100834.34;;;-11.21;91.18
35443;BME280;21561;55.654;37.592;2024-02-15T11:24:47;100821.63;;;-11.31;90.80
35443;BME280;21561;55.654;37.592;2024-02-15T11:27:28;100833.41;;;-11.30;91.33
35443;BME280;21561;55.654;37.592;2024-02-15T11:29:59;100834.88;;;-11.33;91.85
35443;BME280;21561;55.654;37.592;2024-02-15T11:32:50;100830.19;;;-11.29;91.85
35443;BME280;21561;55.654;37.592;2024-02-15T11:35:24;100842.53;;;-11.31;91.89
35443;BME280;21561;55.654;37.592;2024-02-15T11:37:54;100832.09;;;-11.36;91.80
35443;BME280;21561;55.654;37.592;2024-02-15T11:46:13;100840.78;;;-11.32;91.19
35443;BME280;21561;55.654;37.592;2024-02-15T11:48:40;100846.97;;;-11.37;91.04
35443;BME280;21561;55.654;37.592;2024-02-15T11:51:07;100850.91;;;-11.48;90.94
35443;BME280;21561;55.654;37.592;2024-02-15T11:53:38;100857.53;;;-11.57;91.33
35443;BME280;21561;55.654;37.592;2024-02-15T11:56:06;100857.22;;;-11.60;91.55
35443;BME280;21561;55.654;37.592;2024-02-15T11:58:37;100862.53;;;-11.57;91.74
35443;BME280;21561;55.654;37.592;2024-02-15T12:01:19;100853.97;;;-11.50;91.64
35443;BME280;21561;55.654;37.592;2024-02-15T12:04:04;100853.09;;;-11.51;91.58
35443;BME280;21561;55.654;37.592;2024-02-15T12:06:58;100859.31;;;-11.47;92.13
35443;BME280;21561;55.654;37.592;2024-02-15T12:09:44;100861.97;;;-11.46;92.11
35443;BME280;21561;55.654;37.592;2024-02-15T12:12:32;100859.03;;;-11.42;91.86
35443;BME280;21561;55.654;37.592;2024-02-15T12:15:17;100857.28;;;-11.43;91.95
35443;BME280;21561;55.654;37.592;2024-02-15T12:18:17;100862.00;;;-11.37;91.53
35443;BME280;21561;55.654;37.592;2024-02-15T12:21:03;100859.91;;;-11.50;91.78
35443;BME280;21561;55.654;37.592;2024-02-15T12:23:32;100851.63;;;-11.49;92.12
35443;BME280;21561;55.654;37.592;2024-02-15T12:26:02;100855.19;;;-11.47;92.11
35443;BME280;21561;55.654;37.592;2024-02-15T12:28:32;100855.19;;;-11.47;92.29
35443;BME280;21561;55.654;37.592;2024-02-15T12:31:02;100859.91;;;-11.50;92.53
35443;BME280;21561;55.654;37.592;2024-02-15T12:33:29;100851.94;;;-11.46;92.61
35443;BME280;21561;55.654;37.592;2024-02-15T12:36:05;100860.53;;;-11.35;92.75
35443;BME280;21561;55.654;37.592;2024-02-15T12:38:34;100858.91;;;-11.35;92.30
35443;BME280;21561;55.654;37.592;2024-02-15T12:41:18;100868.75;;;-11.36;92.07
35443;BME280;21561;55.654;37.592;2024-02-15T12:43:45;100865.06;;;-11.40;92.10
35443;BME280;21561;55.654;37.592;2024-02-15T12:46:18;100874.06;;;-11.42;92.08
35443;BME280;21561;55.654;37.592;2024-02-15T12:48:46;100874.66;;;-11.44;92.74
35443;BME280;21561;55.654;37.592;2024-02-15T12:51:14;100871.88;;;-11.39;92.77
35443;BME280;21561;55.654;37.592;2024-02-15T12:53:41;100866.69;;;-11.40;93.00
35443;BME280;21561;55.654;37.592;2024-02-15T12:56:09;100871.13;;;-11.38;92.92
35443;BME280;21561;55.654;37.592;2024-02-15T12:58:36;100864.78;;;-11.43;92.63
35443;BME280;21561;55.654;37.592;2024-02-15T13:01:03;100875.22;;;-11.47;92.96
35443;BME280;21561;55.654;37.592;2024-02-15T13:03:31;100866.06;;;-11.55;93.31